sensor_id;sensor_type;location;lat;lon;timestamp;temperature;humidity
67890;DHT22;54685;52.082;5.426;2023-05-10T00:02:10;13.10;99.90
67890;DHT22;54685;52.082;5.426;2023-05-10T00:04:40;13.20;99.90
67890;DHT22;54685;52.082;5.426;2023-05-10T00:07:07;13.20;99.90
67890;DHT22;54685;52.082;5.426;2023-05-10T00:09:34;13.10;99.90
67890;DHT22;54685;52.082;5.426;2023-05-10T00:12:01;13.10;99.90
67890;DHT22;54685;52.082;5.426;2023-05-10T00:14:28;13.10;99.90
67890;DHT22;54685;52.082;5.426;2023-05-10T00:16:55;13.20;99.90
67890;DHT22;54685;52.082;5.426;2023-05-10T00:19:22;13.10;99.90
67890;DHT22;54685;52.082;5.426;2023-05-10T00:21:49;13.10;99.90
67890;DHT22;54685;52.082;5.426;2023-05-10T00:24:16;13.10;99.90
67890;DHT22;54685;52.082;5.426;2023-05-10T00:26:43;13.10;99.90
67890;DHT22;54685;52.082;5.426;2023-05-10T00:29:10;13.10;99.90
67890;DHT22;54685;52.082;5.426;2023-05-10T00:31:37;13.00;99.90
67890;DHT22;54685;52.082;5.426;2023-05-10T00:34:04;13.00;99.90
67890;DHT22;54685;52.082;5.426;2023-05-10T00:36:31;13.00;99.90
67890;DHT22;54685;52.082;5.426;2023-05-10T00:38:59;13.00;99.90
67890;DHT22;54685;52.082;5.426;2023-05-10T00:41:26;13.00;99.90
67890;DHT22;54685;52.082;5.426;2023-05-10T00:43:54;13.00;99.90
67890;DHT22;54685;52.082;5.426;2023-05-10T00:46:21;13.00;99.90
67890;DHT22;54685;52.082;5.426;2023-05-10T00:48:48;13.10;99.90
67890;DHT22;54685;52.082;5.426;2023-05-10T00:51:16;13.10;99.90
67890;DHT22;54685;52.082;5.426;2023-05-10T00:53:45;13.00;99.90
67890;DHT22;54685;52.082;5.426;2023-05-10T00:56:13;13.00;99.90
67890;DHT22;54685;52.082;5.426;2023-05-10T00:58:40;13.00;99.90
67890;DHT22;54685;52.082;5.426;2023-05-10T01:01:08;13.00;99.90
67890;DHT22;54685;52.082;5.426;2023-05-10T01:03:36;13.00;99.90
67890;DHT22;54685;52.082;5.426;2023-05-10T01:06:03;13.00;99.90
67890;DHT22;54685;52.082;5.426;2023-05-10T01:08:30;13.00;99.90
67890;DHT22;54685;52.082;5.426;2023-05-10T01:10:58;13.00;99.90
67890;DHT22;54685;52.082;5.426;2023-05-10T01:13:34;13.10;99.90
67890;DHT22;54685;52.082;5.426;2023-05-10T01:16:03;13.10;99.90
67890;DHT22;54685;52.082;5.426;2023-05-10T01:18:33;13.00;99.90
67890;DHT22;54685;52.082;5.426;2023-05-10T01:35:26;13.10;99.90
67890;DHT22;54685;52.082;5.426;2023-05-10T01:40:46;13.00;99.90
67890;DHT22;54685;52.082;5.426;2023-05-10T01:43:21;13.00;99.90
67890;DHT22;54685;52.082;5.426;2023-05-10T01:45:56;13.00;99.90
67890;DHT22;54685;52.082;5.426;2023-05-10T01:48:28;13.00;99.90
67890;DHT22;54685;52.082;5.426;2023-05-10T01:50:56;13.00;99.90
67890;DHT22;54685;52.082;5.426;2023-05-10T01:56:47;13.00;99.90
67890;DHT22;54685;52.082;5.426;2023-05-10T01:59:17;13.00;99.90
67890;DHT22;54685;52.082;5.426;2023-05-10T02:01:47;13.00;99.90
67890;DHT22;54685;52.082;5.426;2023-05-10T02:04:17;13.00;99.90
67890;DHT22;54685;52.082;5.426;2023-05-10T02:06:46;13.00;99.90
67890;DHT22;54685;52.082;5.426;2023-05-10T02:09:14;13.00;99.90
67890;DHT22;54685;52.082;5.426;2023-05-10T02:11:43;13.00;99.90
67890;DHT22;54685;52.082;5.426;2023-05-10T02:14:11;13.00;99.90
67890;DHT22;54685;52.082;5.426;2023-05-10T02:16:39;12.90;99.90
67890;DHT22;54685;52.082;5.426;2023-05-10T02:19:07;12.90;99.90
67890;DHT22;54685;52.082;5.426;2023-05-10T02:21:36;12.90;99.90
67890;DHT22;54685;52.082;5.426;2023-05-10T02:24:05;12.90;99.90
67890;DHT22;54685;52.082;5.426;2023-05-10T02:26:33;12.80;99.90
67890;DHT22;54685;52.082;5.426;2023-05-10T02:29:02;12.80;99.90
67890;DHT22;54685;52.082;5.426;2023-05-10T02:31:33;12.80;99.90
67890;DHT22;54685;52.082;5.426;2023-05-10T02:34:02;12.80;99.90
67890;DHT22;54685;52.082;5.426;2023-05-10T02:36:30;12.70;99.90
67890;DHT22;54685;52.082;5.426;2023-05-10T02:39:00;12.70;99.90
67890;DHT22;54685;52.082;5.426;2023-05-10T02:41:31;12.80;99.90
67890;DHT22;54685;52.082;5.426;2023-05-10T02:44:00;12.70;99.90
67890;DHT22;54685;52.082;5.426;2023-05-10T02:46:31;12.70;99.90
67890;DHT22;54685;52.082;5.426;2023-05-10T02:48:58;12.70;99.90
67890;DHT22;54685;52.082;5.426;2023-05-10T02:51:30;12.70;99.90
67890;DHT22;54685;52.082;5.426;2023-05-10T02:54:11;12.70;99.90
67890;DHT22;54685;52.082;5.426;2023-05-10T02:56:51;12.60;99.90
67890;DHT22;54685;52.082;5.426;2023-05-10T02:59:18;12.60;99.90
67890;DHT22;54685;52.082;5.426;2023-05-10T03:01:45;12.60;99.90
67890;DHT22;54685;52.082;5.426;2023-05-10T03:04:12;12.50;99.90
67890;DHT22;54685;52.082;5.426;2023-05-10T03:06:40;12.50;99.90
67890;DHT22;54685;52.082;5.426;2023-05-10T03:09:07;12.40;99.90
67890;DHT22;54685;52.082;5.426;2023-05-10T03:14:28;12.30;99.90
67890;DHT22;54685;52.082;5.426;2023-05-10T03:19:47;12.30;99.90
67890;DHT22;54685;52.082;5.426;2023-05-10T03:22:27;12.30;99.90
67890;DHT22;54685;52.082;5.426;2023-05-10T03:24:58;12.30;99.90
67890;DHT22;54685;52.082;5.426;2023-05-10T03:27:30;12.20;99.90
67890;DHT22;54685;52.082;5.426;2023-05-10T03:29:59;12.20;99.90
67890;DHT22;54685;52.082;5.426;2023-05-10T03:32:31;12.30;99.90
67890;DHT22;54685;52.082;5.426;2023-05-10T03:35:06;12.30;99.90
67890;DHT22;54685;52.082;5.426;2023-05-10T03:37:35;12.30;99.90
67890;DHT22;54685;52.082;5.426;2023-05-10T03:40:03;12.30;99.90
67890;DHT22;54685;52.082;5.426;2023-05-10T03:42:32;12.30;99.90
67890;DHT22;54685;52.082;5.426;2023-05-10T03:44:59;12.40;99.90
67890;DHT22;54685;52.082;5.426;2023-05-10T03:47:26;12.40;99.90
67890;DHT22;54685;52.082;5.426;2023-05-10T03:49:53;12.40;99.90
67890;DHT22;54685;52.082;5.426;2023-05-10T03:52:20;12.30;99.90
67890;DHT22;54685;52.082;5.426;2023-05-10T03:54:47;12.40;99.90
67890;DHT22;54685;52.082;5.426;2023-05-10T03:57:14;12.40;99.90
67890;DHT22;54685;52.082;5.426;2023-05-10T03:59:41;12.40;99.90
67890;DHT22;54685;52.082;5.426;2023-05-10T04:02:08;12.40;99.90
67890;DHT22;54685;52.082;5.426;2023-05-10T04:04:35;12.40;99.90
67890;DHT22;54685;52.082;5.426;2023-05-10T04:07:03;12.40;99.90
67890;DHT22;54685;52.082;5.426;2023-05-10T04:09:30;12.40;99.90
67890;DHT22;54685;52.082;5.426;2023-05-10T04:11:58;12.40;99.90
67890;DHT22;54685;52.082;5.426;2023-05-10T04:14:25;12.40;99.90
67890;DHT22;54685;52.082;5.426;2023-05-10T04:16:52;12.40;99.90
67890;DHT22;54685;52.082;5.426;2023-05-10T04:19:19;12.40;99.90
67890;DHT22;54685;52.082;5.426;2023-05-10T04:21:47;12.40;99.90
67890;DHT22;54685;52.082;5.426;2023-05-10T04:24:14;12.40;99.90
67890;DHT22;54685;52.082;5.426;2023-05-10T04:26:41;12.40;99.90
67890;DHT22;54685;52.082;5.426;2023-05-10T04:29:08;12.40;99.90
67890;DHT22;54685;52.082;5.426;2023-05-10T04:31:35;12.40;99.90
67890;DHT22;54685;52.082;5.426;2023-05-10T04:34:03;12.40;99.90
67890;DHT22;54685;52.082;5.426;2023-05-10T04:36:29;12.40;99.90
67890;DHT22;54685;52.082;5.426;2023-05-10T04:38:59;12.40;99.90
67890;DHT22;54685;52.082;5.426;2023-05-10T04:41:26;12.40;99.90
67890;DHT22;54685;52.082;5.426;2023-05-10T04:43:53;12.40;99.90
67890;DHT22;54685;52.082;5.426;2023-05-10T04:46:20;12.40;99.90
67890;DHT22;54685;52.082;5.426;2023-05-10T04:48:47;12.50;99.90
67890;DHT22;54685;52.082;5.426;2023-05-10T04:51:14;12.50;99.90
67890;DHT22;54685;52.082;5.426;2023-05-10T04:53:41;12.50;99.90
67890;DHT22;54685;52.082;5.426;2023-05-10T04:56:16;12.50;99.90
67890;DHT22;54685;52.082;5.426;2023-05-10T04:58:44;12.50;99.90
67890;DHT22;54685;52.082;5.426;2023-05-10T05:01:11;12.60;99.90
67890;DHT22;54685;52.082;5.426;2023-05-10T05:03:44;12.60;99.90
67890;DHT22;54685;52.082;5.426;2023-05-10T05:06:11;12.70;99.90
67890;DHT22;54685;52.082;5.426;2023-05-10T05:08:37;12.70;99.90
67890;DHT22;54685;52.082;5.426;2023-05-10T05:11:06;12.70;99.90
67890;DHT22;54685;52.082;5.426;2023-05-10T05:13:33;12.70;99.90
67890;DHT22;54685;52.082;5.426;2023-05-10T05:16:02;12.70;99.90
67890;DHT22;54685;52.082;5.426;2023-05-10T05:18:29;12.70;99.90
67890;DHT22;54685;52.082;5.426;2023-05-10T05:20:56;12.70;99.90
67890;DHT22;54685;52.082;5.426;2023-05-10T05:23:23;12.70;99.90
67890;DHT22;54685;52.082;5.426;2023-05-10T05:25:54;12.80;99.90
67890;DHT22;54685;52.082;5.426;2023-05-10T05:28:21;12.80;99.90
67890;DHT22;54685;52.082;5.426;2023-05-10T05:30:48;12.80;99.90
67890;DHT22;54685;52.082;5.426;2023-05-10T05:33:15;12.80;99.90
67890;DHT22;54685;52.082;5.426;2023-05-10T05:35:42;12.80;99.90
67890;DHT22;54685;52.082;5.426;2023-05-10T05:38:17;12.80;99.90
67890;DHT22;54685;52.082;5.426;2023-05-10T05:40:45;12.80;99.90
67890;DHT22;54685;52.082;5.426;2023-05-10T05:43:12;12.80;99.90
67890;DHT22;54685;52.082;5.426;2023-05-10T05:45:40;12.80;99.90
67890;DHT22;54685;52.082;5.426;2023-05-10T05:48:07;12.80;99.90
67890;DHT22;54685;52.082;5.426;2023-05-10T05:50:34;12.80;99.90
67890;DHT22;54685;52.082;5.426;2023-05-10T05:53:00;12.80;99.90
67890;DHT22;54685;52.082;5.426;2023-05-10T05:55:27;12.80;99.90
67890;DHT22;54685;52.082;5.426;2023-05-10T05:57:56;12.80;99.90
67890;DHT22;54685;52.082;5.426;2023-05-10T06:00:23;12.80;99.90
67890;DHT22;54685;52.082;5.426;2023-05-10T06:02:50;12.70;99.90
67890;DHT22;54685;52.082;5.426;2023-05-10T06:05:17;12.70;99.90
67890;DHT22;54685;52.082;5.426;2023-05-10T06:07:45;12.70;99.90
67890;DHT22;54685;52.082;5.426;2023-05-10T06:10:12;12.80;99.90
67890;DHT22;54685;52.082;5.426;2023-05-10T06:12:42;12.80;99.90
67890;DHT22;54685;52.082;5.426;2023-05-10T06:15:09;12.80;99.90
67890;DHT22;54685;52.082;5.426;2023-05-10T06:17:36;12.80;99.90
67890;DHT22;54685;52.082;5.426;2023-05-10T06:20:03;12.70;99.90
67890;DHT22;54685;52.082;5.426;2023-05-10T06:22:30;12.70;99.90
67890;DHT22;54685;52.082;5.426;2023-05-10T06:24:57;12.70;99.90
67890;DHT22;54685;52.082;5.426;2023-05-10T06:27:24;12.70;99.90
67890;DHT22;54685;52.082;5.426;2023-05-10T06:29:51;12.70;99.90
67890;DHT22;54685;52.082;5.426;2023-05-10T06:32:31;12.70;99.90
67890;DHT22;54685;52.082;5.426;2023-05-10T06:34:58;12.70;99.90
67890;DHT22;54685;52.082;5.426;2023-05-10T06:37:25;12.70;99.90
67890;DHT22;54685;52.082;5.426;2023-05-10T06:39:52;12.70;99.90
67890;DHT22;54685;52.082;5.426;2023-05-10T06:42:22;12.70;99.90
67890;DHT22;54685;52.082;5.426;2023-05-10T06:44:48;12.70;99.90
67890;DHT22;54685;52.082;5.426;2023-05-10T06:47:15;12.70;99.90
67890;DHT22;54685;52.082;5.426;2023-05-10T06:49:45;12.70;99.90
67890;DHT22;54685;52.082;5.426;2023-05-10T06:52:12;12.70;99.90
67890;DHT22;54685;52.082;5.426;2023-05-10T06:54:39;12.70;99.90
67890;DHT22;54685;52.082;5.426;2023-05-10T06:57:06;12.70;99.90
67890;DHT22;54685;52.082;5.426;2023-05-10T06:59:52;12.70;99.90
67890;DHT22;54685;52.082;5.426;2023-05-10T07:02:19;12.80;99.90
67890;DHT22;54685;52.082;5.426;2023-05-10T07:04:47;12.80;99.90
67890;DHT22;54685;52.082;5.426;2023-05-10T07:07:14;12.90;99.90
67890;DHT22;54685;52.082;5.426;2023-05-10T07:09:43;12.90;99.90
67890;DHT22;54685;52.082;5.426;2023-05-10T07:12:11;12.90;99.90
67890;DHT22;54685;52.082;5.426;2023-05-10T07:14:41;12.90;99.90
67890;DHT22;54685;52.082;5.426;2023-05-10T07:17:10;12.90;99.90
67890;DHT22;54685;52.082;5.426;2023-05-10T07:19:37;12.90;99.90
67890;DHT22;54685;52.082;5.426;2023-05-10T07:22:04;12.90;99.90
67890;DHT22;54685;52.082;5.426;2023-05-10T07:24:32;13.00;99.90
67890;DHT22;54685;52.082;5.426;2023-05-10T07:26:59;13.00;99.90
67890;DHT22;54685;52.082;5.426;2023-05-10T07:29:26;12.90;99.90
67890;DHT22;54685;52.082;5.426;2023-05-10T07:31:54;12.90;99.90
67890;DHT22;54685;52.082;5.426;2023-05-10T07:34:24;13.00;99.90
67890;DHT22;54685;52.082;5.426;2023-05-10T07:36:52;13.00;99.90
67890;DHT22;54685;52.082;5.426;2023-05-10T07:39:19;13.00;99.90
67890;DHT22;54685;52.082;5.426;2023-05-10T07:41:54;13.00;99.90
67890;DHT22;54685;52.082;5.426;2023-05-10T07:44:21;13.00;99.90
67890;DHT22;54685;52.082;5.426;2023-05-10T07:46:48;13.00;99.90
67890;DHT22;54685;52.082;5.426;2023-05-10T07:49:15;13.00;99.90
67890;DHT22;54685;52.082;5.426;2023-05-10T07:51:42;13.00;99.90
67890;DHT22;54685;52.082;5.426;2023-05-10T07:54:10;13.00;99.90
67890;DHT22;54685;52.082;5.426;2023-05-10T07:56:36;13.10;99.90
67890;DHT22;54685;52.082;5.426;2023-05-10T07:59:03;13.20;99.90
67890;DHT22;54685;52.082;5.426;2023-05-10T08:01:32;13.30;99.90
67890;DHT22;54685;52.082;5.426;2023-05-10T08:04:00;13.30;99.90
67890;DHT22;54685;52.082;5.426;2023-05-10T08:06:28;13.30;99.90
67890;DHT22;54685;52.082;5.426;2023-05-10T08:09:03;13.20;99.90
67890;DHT22;54685;52.082;5.426;2023-05-10T08:11:30;13.20;99.90
67890;DHT22;54685;52.082;5.426;2023-05-10T08:13:59;13.20;99.90
67890;DHT22;54685;52.082;5.426;2023-05-10T08:16:26;13.20;99.90
67890;DHT22;54685;52.082;5.426;2023-05-10T08:18:53;13.30;99.90
67890;DHT22;54685;52.082;5.426;2023-05-10T08:21:22;13.30;99.90
67890;DHT22;54685;52.082;5.426;2023-05-10T08:23:49;13.30;99.90
67890;DHT22;54685;52.082;5.426;2023-05-10T08:26:16;13.30;99.90
67890;DHT22;54685;52.082;5.426;2023-05-10T08:28:43;13.40;99.90
67890;DHT22;54685;52.082;5.426;2023-05-10T08:31:10;13.40;99.90
67890;DHT22;54685;52.082;5.426;2023-05-10T08:33:37;13.40;99.90
67890;DHT22;54685;52.082;5.426;2023-05-10T08:36:04;13.50;99.90
67890;DHT22;54685;52.082;5.426;2023-05-10T08:38:31;13.50;99.90
67890;DHT22;54685;52.082;5.426;2023-05-10T08:40:58;13.50;99.90
67890;DHT22;54685;52.082;5.426;2023-05-10T08:43:27;13.70;99.90
67890;DHT22;54685;52.082;5.426;2023-05-10T08:45:56;13.70;99.90
67890;DHT22;54685;52.082;5.426;2023-05-10T08:48:24;13.70;99.90
67890;DHT22;54685;52.082;5.426;2023-05-10T08:50:53;13.70;99.90
67890;DHT22;54685;52.082;5.426;2023-05-10T08:53:24;13.70;99.90
67890;DHT22;54685;52.082;5.426;2023-05-10T08:55:53;13.70;99.90
67890;DHT22;54685;52.082;5.426;2023-05-10T08:58:20;13.70;99.90
67890;DHT22;54685;52.082;5.426;2023-05-10T09:00:48;13.80;99.90
67890;DHT22;54685;52.082;5.426;2023-05-10T09:03:17;13.80;99.90
67890;DHT22;54685;52.082;5.426;2023-05-10T09:05:45;13.70;99.90
67890;DHT22;54685;52.082;5.426;2023-05-10T09:08:15;13.70;99.90
67890;DHT22;54685;52.082;5.426;2023-05-10T09:10:45;13.70;99.90
67890;DHT22;54685;52.082;5.426;2023-05-10T09:13:19;13.70;99.90
67890;DHT22;54685;52.082;5.426;2023-05-10T09:15:48;13.70;99.90
67890;DHT22;54685;52.082;5.426;2023-05-10T09:18:16;13.70;99.90
67890;DHT22;54685;52.082;5.426;2023-05-10T09:20:43;13.70;99.90
67890;DHT22;54685;52.082;5.426;2023-05-10T09:23:10;13.80;99.90
67890;DHT22;54685;52.082;5.426;2023-05-10T09:25:37;13.80;99.90
67890;DHT22;54685;52.082;5.426;2023-05-10T09:28:09;13.90;99.90
67890;DHT22;54685;52.082;5.426;2023-05-10T09:30:36;13.90;99.90
67890;DHT22;54685;52.082;5.426;2023-05-10T09:33:03;14.00;99.90
67890;DHT22;54685;52.082;5.426;2023-05-10T09:35:39;14.10;99.90
67890;DHT22;54685;52.082;5.426;2023-05-10T09:38:06;14.20;99.90
67890;DHT22;54685;52.082;5.426;2023-05-10T09:40:33;14.20;99.90
67890;DHT22;54685;52.082;5.426;2023-05-10T09:43:03;14.40;99.90
67890;DHT22;54685;52.082;5.426;2023-05-10T09:45:33;14.50;99.90
67890;DHT22;54685;52.082;5.426;2023-05-10T09:48:04;14.70;99.90
67890;DHT22;54685;52.082;5.426;2023-05-10T09:50:32;14.80;99.90
67890;DHT22;54685;52.082;5.426;2023-05-10T09:53:00;14.80;99.90
67890;DHT22;54685;52.082;5.426;2023-05-10T09:55:43;14.80;99.90
67890;DHT22;54685;52.082;5.426;2023-05-10T09:58:12;14.90;99.90
67890;DHT22;54685;52.082;5.426;2023-05-10T10:00:44;14.90;99.90
67890;DHT22;54685;52.082;5.426;2023-05-10T10:03:16;14.90;99.90
67890;DHT22;54685;52.082;5.426;2023-05-10T10:05:43;15.00;99.90
67890;DHT22;54685;52.082;5.426;2023-05-10T10:08:12;15.00;99.90
67890;DHT22;54685;52.082;5.426;2023-05-10T10:10:40;15.10;99.90
67890;DHT22;54685;52.082;5.426;2023-05-10T10:13:09;15.10;99.90
67890;DHT22;54685;52.082;5.426;2023-05-10T10:15:36;15.10;99.90
67890;DHT22;54685;52.082;5.426;2023-05-10T10:18:04;15.20;99.90
67890;DHT22;54685;52.082;5.426;2023-05-10T10:20:32;15.30;99.90
67890;DHT22;54685;52.082;5.426;2023-05-10T10:22:59;15.40;99.90
67890;DHT22;54685;52.082;5.426;2023-05-10T10:25:26;15.40;99.90
67890;DHT22;54685;52.082;5.426;2023-05-10T10:30:42;15.50;99.90
67890;DHT22;54685;52.082;5.426;2023-05-10T10:36:02;15.50;99.90
67890;DHT22;54685;52.082;5.426;2023-05-10T10:38:55;15.60;99.90
67890;DHT22;54685;52.082;5.426;2023-05-10T10:41:30;15.60;99.90
67890;DHT22;54685;52.082;5.426;2023-05-10T10:47:07;15.30;99.90
67890;DHT22;54685;52.082;5.426;2023-05-10T11:02:50;15.30;99.90
67890;DHT22;54685;52.082;5.426;2023-05-10T11:14:03;15.50;99.90
67890;DHT22;54685;52.082;5.426;2023-05-10T11:16:43;15.50;99.90
67890;DHT22;54685;52.082;5.426;2023-05-10T11:19:12;15.60;99.90
67890;DHT22;54685;52.082;5.426;2023-05-10T11:21:51;15.50;99.90
67890;DHT22;54685;52.082;5.426;2023-05-10T11:24:22;15.40;99.90
67890;DHT22;54685;52.082;5.426;2023-05-10T11:26:53;15.40;99.90
67890;DHT22;54685;52.082;5.426;2023-05-10T11:29:20;15.40;99.90
67890;DHT22;54685;52.082;5.426;2023-05-10T11:31:48;15.40;99.90
67890;DHT22;54685;52.082;5.426;2023-05-10T11:34:30;15.50;99.90
67890;DHT22;54685;52.082;5.426;2023-05-10T11:36:58;15.70;99.90
67890;DHT22;54685;52.082;5.426;2023-05-10T11:39:31;15.80;99.90
67890;DHT22;54685;52.082;5.426;2023-05-10T11:42:00;15.90;99.90
67890;DHT22;54685;52.082;5.426;2023-05-10T11:44:33;16.20;99.90
67890;DHT22;54685;52.082;5.426;2023-05-10T11:47:02;16.40;99.90
67890;DHT22;54685;52.082;5.426;2023-05-10T11:49:30;16.50;99.90
67890;DHT22;54685;52.082;5.426;2023-05-10T11:52:04;16.60;99.90
67890;DHT22;54685;52.082;5.426;2023-05-10T11:54:32;16.70;99.90
67890;DHT22;54685;52.082;5.426;2023-05-10T11:57:01;16.80;99.90
67890;DHT22;54685;52.082;5.426;2023-05-10T11:59:31;16.90;99.90
67890;DHT22;54685;52.082;5.426;2023-05-10T12:01:58;16.90;99.90
67890;DHT22;54685;52.082;5.426;2023-05-10T12:04:25;16.90;99.90
67890;DHT22;54685;52.082;5.426;2023-05-10T12:06:52;17.00;99.90
67890;DHT22;54685;52.082;5.426;2023-05-10T12:09:19;16.90;99.90
67890;DHT22;54685;52.082;5.426;2023-05-10T12:12:07;16.90;99.90
67890;DHT22;54685;52.082;5.426;2023-05-10T12:14:35;16.90;99.90
67890;DHT22;54685;52.082;5.426;2023-05-10T12:17:02;16.90;99.90
67890;DHT22;54685;52.082;5.426;2023-05-10T12:19:37;16.80;99.90
67890;DHT22;54685;52.082;5.426;2023-05-10T12:22:05;16.80;99.90
67890;DHT22;54685;52.082;5.426;2023-05-10T12:24:36;16.80;99.90
67890;DHT22;54685;52.082;5.426;2023-05-10T12:27:05;16.80;99.90
67890;DHT22;54685;52.082;5.426;2023-05-10T12:29:34;16.80;99.90
67890;DHT22;54685;52.082;5.426;2023-05-10T12:32:02;16.80;99.90
67890;DHT22;54685;52.082;5.426;2023-05-10T12:34:33;16.80;99.90
67890;DHT22;54685;52.082;5.426;2023-05-10T12:37:01;16.90;99.90
67890;DHT22;54685;52.082;5.426;2023-05-10T12:39:41;17.10;99.90
67890;DHT22;54685;52.082;5.426;2023-05-10T12:42:09;17.40;99.90
67890;DHT22;54685;52.082;5.426;2023-05-10T12:44:36;17.70;99.90
67890;DHT22;54685;52.082;5.426;2023-05-10T12:47:03;17.90;99.90
67890;DHT22;54685;52.082;5.426;2023-05-10T12:49:29;17.90;99.90
67890;DHT22;54685;52.082;5.426;2023-05-10T12:51:59;17.70;99.90
67890;DHT22;54685;52.082;5.426;2023-05-10T12:54:25;17.70;99.90
67890;DHT22;54685;52.082;5.426;2023-05-10T12:56:55;17.40;99.90
67890;DHT22;54685;52.082;5.426;2023-05-10T12:59:22;17.40;99.90
67890;DHT22;54685;52.082;5.426;2023-05-10T13:01:49;17.20;99.90
67890;DHT22;54685;52.082;5.426;2023-05-10T13:04:18;17.10;99.90
67890;DHT22;54685;52.082;5.426;2023-05-10T13:06:45;16.90;99.90
67890;DHT22;54685;52.082;5.426;2023-05-10T13:09:12;16.60;99.90
67890;DHT22;54685;52.082;5.426;2023-05-10T13:11:38;16.30;99.90
67890;DHT22;54685;52.082;5.426;2023-05-10T13:14:06;16.00;99.90
67890;DHT22;54685;52.082;5.426;2023-05-10T13:16:33;15.80;99.90
67890;DHT22;54685;52.082;5.426;2023-05-10T13:19:00;15.70;99.90
67890;DHT22;54685;52.082;5.426;2023-05-10T13:21:27;15.60;99.90
67890;DHT22;54685;52.082;5.426;2023-05-10T13:23:54;15.40;99.90
67890;DHT22;54685;52.082;5.426;2023-05-10T13:26:21;15.40;99.90
67890;DHT22;54685;52.082;5.426;2023-05-10T13:28:47;15.30;99.90
67890;DHT22;54685;52.082;5.426;2023-05-10T13:31:15;15.20;99.90
67890;DHT22;54685;52.082;5.426;2023-05-10T13:33:42;15.10;99.90
67890;DHT22;54685;52.082;5.426;2023-05-10T13:36:09;15.10;99.90
67890;DHT22;54685;52.082;5.426;2023-05-10T13:38:36;15.00;99.90
67890;DHT22;54685;52.082;5.426;2023-05-10T13:41:03;14.90;99.90
67890;DHT22;54685;52.082;5.426;2023-05-10T13:43:30;14.80;99.90
67890;DHT22;54685;52.082;5.426;2023-05-10T13:45:57;14.70;99.90
67890;DHT22;54685;52.082;5.426;2023-05-10T13:48:26;14.70;99.90
67890;DHT22;54685;52.082;5.426;2023-05-10T13:50:56;14.60;99.90
67890;DHT22;54685;52.082;5.426;2023-05-10T13:53:23;14.70;99.90
67890;DHT22;54685;52.082;5.426;2023-05-10T13:55:50;14.70;99.90
67890;DHT22;54685;52.082;5.426;2023-05-10T13:58:17;14.60;99.90
67890;DHT22;54685;52.082;5.426;2023-05-10T14:00:44;14.60;99.90
67890;DHT22;54685;52.082;5.426;2023-05-10T14:03:10;14.50;99.90
67890;DHT22;54685;52.082;5.426;2023-05-10T14:05:38;14.50;99.90
67890;DHT22;54685;52.082;5.426;2023-05-10T14:08:05;14.50;99.90
67890;DHT22;54685;52.082;5.426;2023-05-10T14:10:32;14.40;99.90
67890;DHT22;54685;52.082;5.426;2023-05-10T14:12:59;14.40;99.90
67890;DHT22;54685;52.082;5.426;2023-05-10T14:15:26;14.40;99.90
67890;DHT22;54685;52.082;5.426;2023-05-10T14:17:53;14.50;99.90
67890;DHT22;54685;52.082;5.426;2023-05-10T14:20:20;14.50;99.90
67890;DHT22;54685;52.082;5.426;2023-05-10T14:22:47;14.50;99.90
67890;DHT22;54685;52.082;5.426;2023-05-10T14:25:15;14.40;99.90
67890;DHT22;54685;52.082;5.426;2023-05-10T14:27:43;14.40;99.90
67890;DHT22;54685;52.082;5.426;2023-05-10T14:30:10;14.40;99.90
67890;DHT22;54685;52.082;5.426;2023-05-10T14:32:37;14.40;99.90
67890;DHT22;54685;52.082;5.426;2023-05-10T14:35:04;14.50;99.90
67890;DHT22;54685;52.082;5.426;2023-05-10T14:37:32;14.40;99.90
67890;DHT22;54685;52.082;5.426;2023-05-10T14:40:01;14.50;99.90
67890;DHT22;54685;52.082;5.426;2023-05-10T14:42:30;14.50;99.90
67890;DHT22;54685;52.082;5.426;2023-05-10T14:44:57;14.50;99.90
67890;DHT22;54685;52.082;5.426;2023-05-10T14:47:24;14.50;99.90
67890;DHT22;54685;52.082;5.426;2023-05-10T14:49:52;14.50;99.90
67890;DHT22;54685;52.082;5.426;2023-05-10T14:52:19;14.50;99.90
67890;DHT22;54685;52.082;5.426;2023-05-10T14:54:45;14.60;99.90
67890;DHT22;54685;52.082;5.426;2023-05-10T14:57:14;14.60;99.90
67890;DHT22;54685;52.082;5.426;2023-05-10T14:59:41;14.60;99.90
67890;DHT22;54685;52.082;5.426;2023-05-10T15:02:09;14.70;99.90
67890;DHT22;54685;52.082;5.426;2023-05-10T15:04:37;14.70;99.90
67890;DHT22;54685;52.082;5.426;2023-05-10T15:07:04;14.80;99.90
67890;DHT22;54685;52.082;5.426;2023-05-10T15:09:32;14.90;99.90
67890;DHT22;54685;52.082;5.426;2023-05-10T15:11:59;14.90;99.90
67890;DHT22;54685;52.082;5.426;2023-05-10T15:14:26;15.00;99.90
67890;DHT22;54685;52.082;5.426;2023-05-10T15:16:53;15.00;99.90
67890;DHT22;54685;52.082;5.426;2023-05-10T15:19:21;15.10;99.90
67890;DHT22;54685;52.082;5.426;2023-05-10T15:21:47;15.10;99.90
67890;DHT22;54685;52.082;5.426;2023-05-10T15:24:14;15.20;99.90
67890;DHT22;54685;52.082;5.426;2023-05-10T15:26:41;15.30;99.90
67890;DHT22;54685;52.082;5.426;2023-05-10T15:29:08;15.30;99.90
67890;DHT22;54685;52.082;5.426;2023-05-10T15:31:35;15.30;99.90
67890;DHT22;54685;52.082;5.426;2023-05-10T15:34:02;15.30;99.90
67890;DHT22;54685;52.082;5.426;2023-05-10T15:36:29;15.30;99.90
67890;DHT22;54685;52.082;5.426;2023-05-10T15:38:56;15.40;99.90
67890;DHT22;54685;52.082;5.426;2023-05-10T15:41:23;15.50;99.90
67890;DHT22;54685;52.082;5.426;2023-05-10T15:43:51;15.60;99.90
67890;DHT22;54685;52.082;5.426;2023-05-10T15:46:20;15.70;99.90
67890;DHT22;54685;52.082;5.426;2023-05-10T15:48:47;15.80;99.90
67890;DHT22;54685;52.082;5.426;2023-05-10T15:51:39;15.80;99.90
67890;DHT22;54685;52.082;5.426;2023-05-10T15:54:07;15.90;99.90
67890;DHT22;54685;52.082;5.426;2023-05-10T15:56:34;15.90;99.90
67890;DHT22;54685;52.082;5.426;2023-05-10T15:59:01;15.90;99.90
67890;DHT22;54685;52.082;5.426;2023-05-10T16:01:32;15.90;99.90
67890;DHT22;54685;52.082;5.426;2023-05-10T16:04:00;16.00;99.90
67890;DHT22;54685;52.082;5.426;2023-05-10T16:06:28;15.90;99.90
67890;DHT22;54685;52.082;5.426;2023-05-10T16:08:55;15.90;99.90
67890;DHT22;54685;52.082;5.426;2023-05-10T16:11:22;15.90;99.90
67890;DHT22;54685;52.082;5.426;2023-05-10T16:13:49;15.80;99.90
67890;DHT22;54685;52.082;5.426;2023-05-10T16:16:16;15.80;99.90
67890;DHT22;54685;52.082;5.426;2023-05-10T16:18:43;15.70;99.90
67890;DHT22;54685;52.082;5.426;2023-05-10T16:21:10;15.70;99.90
67890;DHT22;54685;52.082;5.426;2023-05-10T16:23:37;15.70;99.90
67890;DHT22;54685;52.082;5.426;2023-05-10T16:26:04;15.60;99.90
67890;DHT22;54685;52.082;5.426;2023-05-10T16:28:31;15.60;99.90
67890;DHT22;54685;52.082;5.426;2023-05-10T16:30:58;15.60;99.90
67890;DHT22;54685;52.082;5.426;2023-05-10T16:33:25;15.60;99.90
67890;DHT22;54685;52.082;5.426;2023-05-10T16:35:52;15.50;99.90